sensor_id;sensor_type;location;lat;lon;timestamp;P1;durP1;ratioP1;P2;durP2;ratioP2
46875;SDS011;32866;50.160;14.768;2023-04-06T00:00:50;20.95;;;11.43;;
46875;SDS011;32866;50.160;14.768;2023-04-06T00:03:16;20.40;;;11.27;;
46875;SDS011;32866;50.160;14.768;2023-04-06T00:05:41;22.15;;;11.07;;
46875;SDS011;32866;50.160;14.768;2023-04-06T00:08:07;19.60;;;11.07;;
46875;SDS011;32866;50.160;14.768;2023-04-06T00:10:33;25.05;;;12.82;;
46875;SDS011;32866;50.160;14.768;2023-04-06T00:12:58;21.75;;;11.50;;
46875;SDS011;32866;50.160;14.768;2023-04-06T00:15:24;23.08;;;11.73;;
46875;SDS011;32866;50.160;14.768;2023-04-06T00:17:49;19.10;;;10.73;;
46875;SDS011;32866;50.160;14.768;2023-04-06T00:20:15;22.38;;;10.85;;
46875;SDS011;32866;50.160;14.768;2023-04-06T00:25:07;21.93;;;11.63;;
46875;SDS011;32866;50.160;14.768;2023-04-06T00:27:33;21.92;;;13.52;;
46875;SDS011;32866;50.160;14.768;2023-04-06T00:29:58;21.02;;;12.75;;
46875;SDS011;32866;50.160;14.768;2023-04-06T00:32:23;22.60;;;13.48;;
46875;SDS011;32866;50.160;14.768;2023-04-06T00:34:49;22.33;;;12.52;;
46875;SDS011;32866;50.160;14.768;2023-04-06T00:37:14;27.25;;;11.80;;
46875;SDS011;32866;50.160;14.768;2023-04-06T00:39:40;25.30;;;12.98;;
46875;SDS011;32866;50.160;14.768;2023-04-06T00:42:07;23.55;;;12.63;;
46875;SDS011;32866;50.160;14.768;2023-04-06T00:44:38;26.07;;;14.07;;
46875;SDS011;32866;50.160;14.768;2023-04-06T00:49:29;23.73;;;13.70;;
46875;SDS011;32866;50.160;14.768;2023-04-06T00:51:54;29.17;;;15.60;;
46875;SDS011;32866;50.160;14.768;2023-04-06T00:54:20;35.78;;;16.98;;
46875;SDS011;32866;50.160;14.768;2023-04-06T00:56:45;29.65;;;16.98;;
46875;SDS011;32866;50.160;14.768;2023-04-06T00:59:11;27.75;;;15.32;;
46875;SDS011;32866;50.160;14.768;2023-04-06T01:01:37;23.92;;;14.38;;
46875;SDS011;32866;50.160;14.768;2023-04-06T01:04:02;21.05;;;13.05;;
46875;SDS011;32866;50.160;14.768;2023-04-06T01:06:28;25.70;;;14.07;;
46875;SDS011;32866;50.160;14.768;2023-04-06T01:08:53;30.50;;;15.75;;
46875;SDS011;32866;50.160;14.768;2023-04-06T01:11:19;22.80;;;13.48;;
46875;SDS011;32866;50.160;14.768;2023-04-06T01:13:45;21.73;;;13.93;;
46875;SDS011;32866;50.160;14.768;2023-04-06T01:16:10;25.80;;;15.73;;
46875;SDS011;32866;50.160;14.768;2023-04-06T01:18:37;27.17;;;14.75;;
46875;SDS011;32866;50.160;14.768;2023-04-06T01:21:02;25.93;;;14.23;;
46875;SDS011;32866;50.160;14.768;2023-04-06T01:23:28;23.52;;;13.68;;
46875;SDS011;32866;50.160;14.768;2023-04-06T01:25:53;25.40;;;13.80;;
46875;SDS011;32866;50.160;14.768;2023-04-06T01:28:19;19.63;;;12.77;;
46875;SDS011;32866;50.160;14.768;2023-04-06T01:30:44;21.48;;;13.70;;
46875;SDS011;32866;50.160;14.768;2023-04-06T01:33:09;24.23;;;13.30;;
46875;SDS011;32866;50.160;14.768;2023-04-06T01:35:35;22.50;;;13.20;;
46875;SDS011;32866;50.160;14.768;2023-04-06T01:38:01;32.78;;;16.95;;
46875;SDS011;32866;50.160;14.768;2023-04-06T01:40:26;35.03;;;16.77;;
46875;SDS011;32866;50.160;14.768;2023-04-06T01:42:52;25.10;;;15.52;;
46875;SDS011;32866;50.160;14.768;2023-04-06T01:45:17;27.83;;;17.17;;
46875;SDS011;32866;50.160;14.768;2023-04-06T01:47:43;33.92;;;16.17;;
46875;SDS011;32866;50.160;14.768;2023-04-06T01:50:08;28.85;;;15.60;;
46875;SDS011;32866;50.160;14.768;2023-04-06T01:52:34;32.15;;;17.60;;
46875;SDS011;32866;50.160;14.768;2023-04-06T01:54:59;38.70;;;19.48;;
46875;SDS011;32866;50.160;14.768;2023-04-06T01:57:25;29.95;;;16.63;;
46875;SDS011;32866;50.160;14.768;2023-04-06T01:59:50;38.88;;;19.35;;
46875;SDS011;32866;50.160;14.768;2023-04-06T02:02:16;35.42;;;16.38;;
46875;SDS011;32866;50.160;14.768;2023-04-06T02:04:41;32.20;;;17.48;;
46875;SDS011;32866;50.160;14.768;2023-04-06T02:07:07;33.72;;;16.27;;
46875;SDS011;32866;50.160;14.768;2023-04-06T02:09:32;34.55;;;17.45;;
46875;SDS011;32866;50.160;14.768;2023-04-06T02:11:58;27.35;;;15.35;;
46875;SDS011;32866;50.160;14.768;2023-04-06T02:14:24;30.95;;;17.75;;
46875;SDS011;32866;50.160;14.768;2023-04-06T02:16:50;32.23;;;16.80;;
46875;SDS011;32866;50.160;14.768;2023-04-06T02:19:16;33.63;;;18.13;;
46875;SDS011;32866;50.160;14.768;2023-04-06T02:21:41;31.92;;;18.02;;
46875;SDS011;32866;50.160;14.768;2023-04-06T02:24:07;30.33;;;17.73;;
46875;SDS011;32866;50.160;14.768;2023-04-06T02:26:32;30.77;;;17.88;;
46875;SDS011;32866;50.160;14.768;2023-04-06T02:28:57;39.67;;;19.40;;
46875;SDS011;32866;50.160;14.768;2023-04-06T02:31:23;37.60;;;19.77;;
46875;SDS011;32866;50.160;14.768;2023-04-06T02:33:48;35.05;;;20.73;;
46875;SDS011;32866;50.160;14.768;2023-04-06T02:36:14;42.10;;;22.08;;
46875;SDS011;32866;50.160;14.768;2023-04-06T02:38:39;36.58;;;18.48;;
46875;SDS011;32866;50.160;14.768;2023-04-06T02:41:05;31.95;;;16.92;;
46875;SDS011;32866;50.160;14.768;2023-04-06T02:43:30;30.17;;;16.55;;
46875;SDS011;32866;50.160;14.768;2023-04-06T02:45:55;27.10;;;16.23;;
46875;SDS011;32866;50.160;14.768;2023-04-06T02:48:21;26.52;;;15.18;;
46875;SDS011;32866;50.160;14.768;2023-04-06T02:50:46;30.52;;;17.50;;
46875;SDS011;32866;50.160;14.768;2023-04-06T02:53:12;32.75;;;16.48;;
46875;SDS011;32866;50.160;14.768;2023-04-06T02:55:37;40.17;;;18.55;;
46875;SDS011;32866;50.160;14.768;2023-04-06T02:58:03;29.88;;;17.15;;
46875;SDS011;32866;50.160;14.768;2023-04-06T03:00:28;33.15;;;17.05;;
46875;SDS011;32866;50.160;14.768;2023-04-06T03:02:53;27.42;;;15.93;;
46875;SDS011;32866;50.160;14.768;2023-04-06T03:05:19;31.92;;;18.52;;
46875;SDS011;32866;50.160;14.768;2023-04-06T03:07:45;33.28;;;17.58;;
46875;SDS011;32866;50.160;14.768;2023-04-06T03:10:10;29.05;;;15.35;;
46875;SDS011;32866;50.160;14.768;2023-04-06T03:12:36;30.85;;;18.15;;
46875;SDS011;32866;50.160;14.768;2023-04-06T03:15:01;28.35;;;16.30;;
46875;SDS011;32866;50.160;14.768;2023-04-06T03:17:27;24.77;;;14.60;;
46875;SDS011;32866;50.160;14.768;2023-04-06T03:19:52;28.30;;;16.90;;
46875;SDS011;32866;50.160;14.768;2023-04-06T03:22:17;31.02;;;17.48;;
46875;SDS011;32866;50.160;14.768;2023-04-06T03:24:43;27.60;;;15.45;;
46875;SDS011;32866;50.160;14.768;2023-04-06T03:27:08;25.35;;;16.63;;
46875;SDS011;32866;50.160;14.768;2023-04-06T03:29:34;25.60;;;14.77;;
46875;SDS011;32866;50.160;14.768;2023-04-06T03:34:25;30.43;;;15.23;;
46875;SDS011;32866;50.160;14.768;2023-04-06T03:36:51;29.38;;;15.75;;
46875;SDS011;32866;50.160;14.768;2023-04-06T03:39:16;31.75;;;15.80;;
46875;SDS011;32866;50.160;14.768;2023-04-06T03:41:41;31.73;;;15.57;;
46875;SDS011;32866;50.160;14.768;2023-04-06T03:44:08;28.93;;;17.13;;
46875;SDS011;32866;50.160;14.768;2023-04-06T03:46:33;31.27;;;15.93;;
46875;SDS011;32866;50.160;14.768;2023-04-06T03:48:58;25.52;;;14.23;;
46875;SDS011;32866;50.160;14.768;2023-04-06T03:51:24;32.60;;;16.75;;
46875;SDS011;32866;50.160;14.768;2023-04-06T03:53:50;26.25;;;15.23;;
46875;SDS011;32866;50.160;14.768;2023-04-06T03:56:15;25.60;;;15.57;;
46875;SDS011;32866;50.160;14.768;2023-04-06T03:58:41;27.40;;;16.30;;
46875;SDS011;32866;50.160;14.768;2023-04-06T04:01:06;23.67;;;14.80;;
46875;SDS011;32866;50.160;14.768;2023-04-06T04:03:31;26.00;;;15.80;;
46875;SDS011;32866;50.160;14.768;2023-04-06T04:05:57;29.83;;;15.13;;
46875;SDS011;32866;50.160;14.768;2023-04-06T04:08:23;30.92;;;15.10;;
46875;SDS011;32866;50.160;14.768;2023-04-06T04:10:49;25.57;;;15.27;;
46875;SDS011;32866;50.160;14.768;2023-04-06T04:13:14;19.77;;;13.05;;
46875;SDS011;32866;50.160;14.768;2023-04-06T04:15:40;24.83;;;14.75;;
46875;SDS011;32866;50.160;14.768;2023-04-06T04:18:05;24.90;;;15.00;;
46875;SDS011;32866;50.160;14.768;2023-04-06T04:20:31;23.70;;;14.70;;
46875;SDS011;32866;50.160;14.768;2023-04-06T04:22:57;26.92;;;15.48;;
46875;SDS011;32866;50.160;14.768;2023-04-06T04:25:22;20.60;;;14.10;;
46875;SDS011;32866;50.160;14.768;2023-04-06T04:27:48;24.70;;;12.65;;
46875;SDS011;32866;50.160;14.768;2023-04-06T04:30:13;24.20;;;14.27;;
46875;SDS011;32866;50.160;14.768;2023-04-06T04:32:39;24.15;;;13.40;;
46875;SDS011;32866;50.160;14.768;2023-04-06T04:35:05;28.08;;;14.02;;
46875;SDS011;32866;50.160;14.768;2023-04-06T04:37:30;27.15;;;14.13;;
46875;SDS011;32866;50.160;14.768;2023-04-06T04:39:56;25.48;;;13.48;;
46875;SDS011;32866;50.160;14.768;2023-04-06T04:42:21;27.20;;;14.73;;
46875;SDS011;32866;50.160;14.768;2023-04-06T04:44:47;23.30;;;13.60;;
46875;SDS011;32866;50.160;14.768;2023-04-06T04:47:12;27.13;;;14.35;;
46875;SDS011;32866;50.160;14.768;2023-04-06T04:49:37;25.17;;;13.70;;
46875;SDS011;32866;50.160;14.768;2023-04-06T04:52:03;24.42;;;14.00;;
46875;SDS011;32866;50.160;14.768;2023-04-06T04:54:28;23.23;;;13.95;;
46875;SDS011;32866;50.160;14.768;2023-04-06T04:56:54;24.65;;;16.08;;
46875;SDS011;32866;50.160;14.768;2023-04-06T04:59:19;28.50;;;14.52;;
46875;SDS011;32866;50.160;14.768;2023-04-06T05:01:44;28.67;;;14.50;;
46875;SDS011;32866;50.160;14.768;2023-04-06T05:04:10;22.02;;;15.15;;
46875;SDS011;32866;50.160;14.768;2023-04-06T05:06:35;26.80;;;16.30;;
46875;SDS011;32866;50.160;14.768;2023-04-06T05:09:01;36.17;;;16.08;;
46875;SDS011;32866;50.160;14.768;2023-04-06T05:11:26;25.67;;;15.02;;
46875;SDS011;32866;50.160;14.768;2023-04-06T05:13:53;28.98;;;16.10;;
46875;SDS011;32866;50.160;14.768;2023-04-06T05:16:18;22.88;;;14.90;;
46875;SDS011;32866;50.160;14.768;2023-04-06T05:18:44;24.08;;;14.70;;
46875;SDS011;32866;50.160;14.768;2023-04-06T05:21:10;25.02;;;13.38;;
46875;SDS011;32866;50.160;14.768;2023-04-06T05:23:36;22.37;;;14.13;;
46875;SDS011;32866;50.160;14.768;2023-04-06T05:26:01;33.60;;;16.45;;
46875;SDS011;32866;50.160;14.768;2023-04-06T05:28:27;25.20;;;15.80;;
46875;SDS011;32866;50.160;14.768;2023-04-06T05:30:52;32.25;;;15.93;;
46875;SDS011;32866;50.160;14.768;2023-04-06T05:33:18;28.08;;;15.90;;
46875;SDS011;32866;50.160;14.768;2023-04-06T05:35:43;25.77;;;14.93;;
46875;SDS011;32866;50.160;14.768;2023-04-06T05:38:09;28.70;;;15.18;;
46875;SDS011;32866;50.160;14.768;2023-04-06T05:40:35;22.27;;;14.80;;
46875;SDS011;32866;50.160;14.768;2023-04-06T05:43:02;29.10;;;16.20;;
46875;SDS011;32866;50.160;14.768;2023-04-06T05:45:28;28.27;;;15.23;;
46875;SDS011;32866;50.160;14.768;2023-04-06T05:47:53;30.70;;;16.88;;
46875;SDS011;32866;50.160;14.768;2023-04-06T05:50:19;28.08;;;16.90;;
46875;SDS011;32866;50.160;14.768;2023-04-06T05:52:44;22.85;;;15.23;;
46875;SDS011;32866;50.160;14.768;2023-04-06T05:55:11;30.83;;;14.50;;
46875;SDS011;32866;50.160;14.768;2023-04-06T05:57:36;30.45;;;16.48;;
46875;SDS011;32866;50.160;14.768;2023-04-06T06:00:02;27.83;;;14.95;;
46875;SDS011;32866;50.160;14.768;2023-04-06T06:02:30;31.43;;;15.97;;
46875;SDS011;32866;50.160;14.768;2023-04-06T06:04:55;26.43;;;16.43;;
46875;SDS011;32866;50.160;14.768;2023-04-06T06:07:21;22.10;;;14.90;;
46875;SDS011;32866;50.160;14.768;2023-04-06T06:09:46;24.63;;;14.63;;
46875;SDS011;32866;50.160;14.768;2023-04-06T06:12:12;24.25;;;13.88;;
46875;SDS011;32866;50.160;14.768;2023-04-06T06:14:37;26.05;;;15.10;;
46875;SDS011;32866;50.160;14.768;2023-04-06T06:17:02;27.15;;;16.58;;
46875;SDS011;32866;50.160;14.768;2023-04-06T06:19:28;27.42;;;15.05;;
46875;SDS011;32866;50.160;14.768;2023-04-06T06:21:53;27.83;;;15.82;;
46875;SDS011;32866;50.160;14.768;2023-04-06T06:24:19;24.60;;;16.05;;
46875;SDS011;32866;50.160;14.768;2023-04-06T06:26:44;26.15;;;15.98;;
46875;SDS011;32866;50.160;14.768;2023-04-06T06:29:09;27.23;;;15.85;;
46875;SDS011;32866;50.160;14.768;2023-04-06T06:31:35;27.80;;;16.65;;
46875;SDS011;32866;50.160;14.768;2023-04-06T06:34:00;30.33;;;16.38;;
46875;SDS011;32866;50.160;14.768;2023-04-06T06:36:26;27.23;;;15.50;;
46875;SDS011;32866;50.160;14.768;2023-04-06T06:38:52;29.42;;;15.75;;
46875;SDS011;32866;50.160;14.768;2023-04-06T06:41:18;31.52;;;16.98;;
46875;SDS011;32866;50.160;14.768;2023-04-06T06:43:43;31.58;;;17.45;;
46875;SDS011;32866;50.160;14.768;2023-04-06T06:46:08;27.38;;;15.75;;
46875;SDS011;32866;50.160;14.768;2023-04-06T06:48:34;24.42;;;13.85;;
46875;SDS011;32866;50.160;14.768;2023-04-06T06:51:00;27.33;;;14.77;;
46875;SDS011;32866;50.160;14.768;2023-04-06T06:53:25;20.88;;;12.80;;
46875;SDS011;32866;50.160;14.768;2023-04-06T06:55:50;24.75;;;15.07;;
46875;SDS011;32866;50.160;14.768;2023-04-06T06:58:17;24.55;;;14.82;;
46875;SDS011;32866;50.160;14.768;2023-04-06T07:00:43;19.77;;;12.53;;
46875;SDS011;32866;50.160;14.768;2023-04-06T07:03:09;15.27;;;9.77;;
46875;SDS011;32866;50.160;14.768;2023-04-06T07:05:34;17.50;;;10.00;;
46875;SDS011;32866;50.160;14.768;2023-04-06T07:08:00;18.00;;;11.23;;
46875;SDS011;32866;50.160;14.768;2023-04-06T07:10:25;12.30;;;9.80;;
46875;SDS011;32866;50.160;14.768;2023-04-06T07:12:51;15.82;;;9.95;;
46875;SDS011;32866;50.160;14.768;2023-04-06T07:15:17;13.18;;;10.05;;
46875;SDS011;32866;50.160;14.768;2023-04-06T07:17:42;15.75;;;10.40;;
46875;SDS011;32866;50.160;14.768;2023-04-06T07:20:10;16.10;;;10.63;;
46875;SDS011;32866;50.160;14.768;2023-04-06T07:22:36;17.20;;;10.15;;
46875;SDS011;32866;50.160;14.768;2023-04-06T07:25:01;15.63;;;9.32;;
46875;SDS011;32866;50.160;14.768;2023-04-06T07:27:26;14.95;;;9.55;;
46875;SDS011;32866;50.160;14.768;2023-04-06T07:29:52;13.13;;;8.35;;
46875;SDS011;32866;50.160;14.768;2023-04-06T07:32:17;13.02;;;9.05;;
46875;SDS011;32866;50.160;14.768;2023-04-06T07:34:43;14.35;;;9.63;;
46875;SDS011;32866;50.160;14.768;2023-04-06T07:37:10;13.53;;;9.53;;
46875;SDS011;32866;50.160;14.768;2023-04-06T07:39:35;13.10;;;8.75;;
46875;SDS011;32866;50.160;14.768;2023-04-06T07:42:00;19.55;;;9.23;;
46875;SDS011;32866;50.160;14.768;2023-04-06T07:44:26;13.48;;;8.02;;
46875;SDS011;32866;50.160;14.768;2023-04-06T07:46:51;14.60;;;8.60;;
46875;SDS011;32866;50.160;14.768;2023-04-06T07:49:17;11.93;;;7.40;;
46875;SDS011;32866;50.160;14.768;2023-04-06T07:51:42;11.48;;;7.90;;
46875;SDS011;32866;50.160;14.768;2023-04-06T07:54:08;11.77;;;8.18;;
46875;SDS011;32866;50.160;14.768;2023-04-06T07:56:33;10.25;;;7.38;;
46875;SDS011;32866;50.160;14.768;2023-04-06T07:58:58;21.17;;;8.43;;
46875;SDS011;32866;50.160;14.768;2023-04-06T08:01:24;11.20;;;8.10;;
46875;SDS011;32866;50.160;14.768;2023-04-06T08:03:50;9.95;;;7.47;;
46875;SDS011;32866;50.160;14.768;2023-04-06T08:06:15;14.65;;;8.55;;
46875;SDS011;32866;50.160;14.768;2023-04-06T08:08:41;9.65;;;7.10;;
46875;SDS011;32866;50.160;14.768;2023-04-06T08:11:07;8.98;;;7.07;;
46875;SDS011;32866;50.160;14.768;2023-04-06T08:13:33;14.32;;;7.93;;
46875;SDS011;32866;50.160;14.768;2023-04-06T08:15:59;9.57;;;6.27;;
46875;SDS011;32866;50.160;14.768;2023-04-06T08:18:25;12.13;;;6.70;;
46875;SDS011;32866;50.160;14.768;2023-04-06T08:20:50;7.35;;;5.20;;
46875;SDS011;32866;50.160;14.768;2023-04-06T08:23:16;6.43;;;5.13;;
46875;SDS011;32866;50.160;14.768;2023-04-06T08:25:41;12.05;;;6.72;;
46875;SDS011;32866;50.160;14.768;2023-04-06T08:28:07;10.43;;;5.20;;
46875;SDS011;32866;50.160;14.768;2023-04-06T08:30:34;7.70;;;5.60;;
46875;SDS011;32866;50.160;14.768;2023-04-06T08:33:01;5.47;;;4.38;;
46875;SDS011;32866;50.160;14.768;2023-04-06T08:35:27;5.85;;;4.13;;
46875;SDS011;32866;50.160;14.768;2023-04-06T08:37:52;8.73;;;4.63;;
46875;SDS011;32866;50.160;14.768;2023-04-06T08:42:50;7.85;;;4.60;;
46875;SDS011;32866;50.160;14.768;2023-04-06T08:45:19;6.75;;;3.88;;
46875;SDS011;32866;50.160;14.768;2023-04-06T08:47:46;12.95;;;4.18;;
46875;SDS011;32866;50.160;14.768;2023-04-06T08:50:18;6.22;;;3.13;;
46875;SDS011;32866;50.160;14.768;2023-04-06T08:52:47;5.28;;;3.50;;
46875;SDS011;32866;50.160;14.768;2023-04-06T08:55:14;6.82;;;3.85;;
46875;SDS011;32866;50.160;14.768;2023-04-06T08:57:40;7.03;;;3.80;;
46875;SDS011;32866;50.160;14.768;2023-04-06T09:00:06;5.40;;;3.65;;
46875;SDS011;32866;50.160;14.768;2023-04-06T09:02:36;7.88;;;3.83;;
46875;SDS011;32866;50.160;14.768;2023-04-06T09:05:04;6.93;;;4.20;;
46875;SDS011;32866;50.160;14.768;2023-04-06T09:07:29;8.50;;;4.97;;
46875;SDS011;32866;50.160;14.768;2023-04-06T09:12:24;7.50;;;5.00;;
46875;SDS011;32866;50.160;14.768;2023-04-06T09:14:51;7.00;;;5.03;;
46875;SDS011;32866;50.160;14.768;2023-04-06T09:17:21;5.88;;;4.53;;
46875;SDS011;32866;50.160;14.768;2023-04-06T09:19:50;5.50;;;4.40;;
46875;SDS011;32866;50.160;14.768;2023-04-06T09:22:16;9.18;;;5.40;;
46875;SDS011;32866;50.160;14.768;2023-04-06T09:24:52;7.75;;;4.72;;
46875;SDS011;32866;50.160;14.768;2023-04-06T09:27:29;7.07;;;4.63;;
46875;SDS011;32866;50.160;14.768;2023-04-06T09:32:31;7.68;;;5.28;;
46875;SDS011;32866;50.160;14.768;2023-04-06T09:35:06;6.45;;;4.40;;
46875;SDS011;32866;50.160;14.768;2023-04-06T09:37:35;6.38;;;5.00;;
46875;SDS011;32866;50.160;14.768;2023-04-06T09:40:03;8.63;;;4.72;;
46875;SDS011;32866;50.160;14.768;2023-04-06T09:42:33;6.18;;;3.92;;
46875;SDS011;32866;50.160;14.768;2023-04-06T09:44:59;6.75;;;3.53;;
46875;SDS011;32866;50.160;14.768;2023-04-06T09:49:54;7.20;;;4.03;;
46875;SDS011;32866;50.160;14.768;2023-04-06T09:52:23;6.63;;;3.47;;
46875;SDS011;32866;50.160;14.768;2023-04-06T09:54:51;7.28;;;4.05;;
46875;SDS011;32866;50.160;14.768;2023-04-06T09:57:23;5.50;;;2.67;;
46875;SDS011;32866;50.160;14.768;2023-04-06T10:05:09;7.47;;;3.35;;
46875;SDS011;32866;50.160;14.768;2023-04-06T10:07:41;4.15;;;3.42;;
46875;SDS011;32866;50.160;14.768;2023-04-06T10:10:07;8.37;;;3.70;;
46875;SDS011;32866;50.160;14.768;2023-04-06T10:12:35;4.17;;;3.43;;
46875;SDS011;32866;50.160;14.768;2023-04-06T10:15:02;4.57;;;3.25;;
46875;SDS011;32866;50.160;14.768;2023-04-06T10:17:28;4.35;;;2.80;;
46875;SDS011;32866;50.160;14.768;2023-04-06T10:19:54;5.88;;;3.47;;
46875;SDS011;32866;50.160;14.768;2023-04-06T10:22:39;4.17;;;3.00;;
46875;SDS011;32866;50.160;14.768;2023-04-06T10:25:28;6.30;;;3.55;;
46875;SDS011;32866;50.160;14.768;2023-04-06T10:28:01;5.95;;;3.38;;
46875;SDS011;32866;50.160;14.768;2023-04-06T10:30:29;15.30;;;4.50;;
46875;SDS011;32866;50.160;14.768;2023-04-06T10:32:55;7.43;;;3.65;;
46875;SDS011;32866;50.160;14.768;2023-04-06T10:37:50;3.83;;;2.88;;
46875;SDS011;32866;50.160;14.768;2023-04-06T10:40:21;4.50;;;3.15;;
46875;SDS011;32866;50.160;14.768;2023-04-06T10:42:49;5.50;;;2.83;;
46875;SDS011;32866;50.160;14.768;2023-04-06T10:45:21;6.07;;;4.70;;
46875;SDS011;32866;50.160;14.768;2023-04-06T10:47:54;3.75;;;2.90;;
46875;SDS011;32866;50.160;14.768;2023-04-06T10:50:20;3.83;;;2.97;;
46875;SDS011;32866;50.160;14.768;2023-04-06T10:55:22;4.22;;;2.78;;
46875;SDS011;32866;50.160;14.768;2023-04-06T10:57:49;3.83;;;2.60;;
46875;SDS011;32866;50.160;14.768;2023-04-06T11:02:40;5.68;;;2.75;;
46875;SDS011;32866;50.160;14.768;2023-04-06T11:07:36;3.70;;;2.50;;
46875;SDS011;32866;50.160;14.768;2023-04-06T11:10:01;4.07;;;2.83;;
46875;SDS011;32866;50.160;14.768;2023-04-06T11:14:57;5.43;;;2.50;;
46875;SDS011;32866;50.160;14.768;2023-04-06T11:17:29;2.90;;;2.03;;
46875;SDS011;32866;50.160;14.768;2023-04-06T11:19:56;2.65;;;2.10;;
46875;SDS011;32866;50.160;14.768;2023-04-06T11:22:22;2.78;;;2.40;;
46875;SDS011;32866;50.160;14.768;2023-04-06T11:24:48;4.75;;;3.25;;
46875;SDS011;32866;50.160;14.768;2023-04-06T11:29:41;2.80;;;2.33;;
46875;SDS011;32866;50.160;14.768;2023-04-06T11:34:34;3.35;;;2.22;;
46875;SDS011;32866;50.160;14.768;2023-04-06T11:37:02;6.25;;;2.78;;
46875;SDS011;32866;50.160;14.768;2023-04-06T11:39:31;5.47;;;2.83;;
46875;SDS011;32866;50.160;14.768;2023-04-06T11:41:58;3.85;;;2.78;;
46875;SDS011;32866;50.160;14.768;2023-04-06T11:47:03;3.20;;;2.30;;
46875;SDS011;32866;50.160;14.768;2023-04-06T11:49:31;3.28;;;2.75;;
46875;SDS011;32866;50.160;14.768;2023-04-06T11:51:58;5.20;;;2.60;;
46875;SDS011;32866;50.160;14.768;2023-04-06T11:56:56;4.83;;;3.07;;
46875;SDS011;32866;50.160;14.768;2023-04-06T11:59:22;4.70;;;3.20;;
46875;SDS011;32866;50.160;14.768;2023-04-06T12:01:48;5.25;;;2.63;;
46875;SDS011;32866;50.160;14.768;2023-04-06T12:04:13;6.95;;;3.08;;
46875;SDS011;32866;50.160;14.768;2023-04-06T12:06:39;3.88;;;2.47;;
46875;SDS011;32866;50.160;14.768;2023-04-06T12:09:05;3.55;;;2.65;;
46875;SDS011;32866;50.160;14.768;2023-04-06T12:11:30;4.10;;;3.05;;
46875;SDS011;32866;50.160;14.768;2023-04-06T12:13:55;3.63;;;2.47;;
46875;SDS011;32866;50.160;14.768;2023-04-06T12:16:21;5.47;;;2.65;;
46875;SDS011;32866;50.160;14.768;2023-04-06T12:18:46;5.05;;;2.40;;
46875;SDS011;32866;50.160;14.768;2023-04-06T12:23:37;2.70;;;2.00;;
46875;SDS011;32866;50.160;14.768;2023-04-06T12:28:28;3.10;;;2.60;;
46875;SDS011;32866;50.160;14.768;2023-04-06T12:30:54;3.25;;;2.95;;
46875;SDS011;32866;50.160;14.768;2023-04-06T12:33:20;3.60;;;2.50;;
46875;SDS011;32866;50.160;14.768;2023-04-06T12:35:46;4.18;;;2.83;;
46875;SDS011;32866;50.160;14.768;2023-04-06T12:38:11;2.63;;;2.15;;
46875;SDS011;32866;50.160;14.768;2023-04-06T12:40:39;5.30;;;2.88;;
46875;SDS011;32866;50.160;14.768;2023-04-06T12:43:05;4.38;;;2.53;;
46875;SDS011;32866;50.160;14.768;2023-04-06T12:45:31;3.83;;;2.67;;
46875;SDS011;32866;50.160;14.768;2023-04-06T12:50:22;28.37;;;11.23;;
46875;SDS011;32866;50.160;14.768;2023-04-06T12:52:47;19.15;;;8.73;;
46875;SDS011;32866;50.160;14.768;2023-04-06T12:55:12;16.35;;;6.32;;
46875;SDS011;32866;50.160;14.768;2023-04-06T12:57:38;5.25;;;3.22;;
46875;SDS011;32866;50.160;14.768;2023-04-06T13:00:04;5.57;;;2.90;;
46875;SDS011;32866;50.160;14.768;2023-04-06T13:02:30;4.95;;;2.47;;
46875;SDS011;32866;50.160;14.768;2023-04-06T13:07:21;4.47;;;2.40;;
46875;SDS011;32866;50.160;14.768;2023-04-06T13:09:47;2.75;;;1.90;;
46875;SDS011;32866;50.160;14.768;2023-04-06T13:12:14;3.70;;;2.55;;
46875;SDS011;32866;50.160;14.768;2023-04-06T13:17:05;3.00;;;2.13;;
46875;SDS011;32866;50.160;14.768;2023-04-06T13:21:56;3.30;;;2.38;;
46875;SDS011;32866;50.160;14.768;2023-04-06T13:24:21;2.97;;;2.50;;
46875;SDS011;32866;50.160;14.768;2023-04-06T13:26:48;4.43;;;2.85;;
46875;SDS011;32866;50.160;14.768;2023-04-06T13:29:13;5.13;;;2.83;;
46875;SDS011;32866;50.160;14.768;2023-04-06T13:31:39;4.10;;;3.22;;
46875;SDS011;32866;50.160;14.768;2023-04-06T13:34:04;3.80;;;2.85;;
46875;SDS011;32866;50.160;14.768;2023-04-06T13:36:30;4.30;;;2.80;;
46875;SDS011;32866;50.160;14.768;2023-04-06T13:38:57;7.90;;;2.80;;
46875;SDS011;32866;50.160;14.768;2023-04-06T13:43:49;4.43;;;2.25;;
46875;SDS011;32866;50.160;14.768;2023-04-06T13:48:40;3.83;;;2.83;;
46875;SDS011;32866;50.160;14.768;2023-04-06T13:53:35;4.07;;;2.80;;
46875;SDS011;32866;50.160;14.768;2023-04-06T13:56:00;3.45;;;2.20;;
46875;SDS011;32866;50.160;14.768;2023-04-06T13:58:26;3.28;;;2.33;;
46875;SDS011;32866;50.160;14.768;2023-04-06T14:03:17;3.35;;;2.22;;
46875;SDS011;32866;50.160;14.768;2023-04-06T14:05:44;4.35;;;2.88;;
46875;SDS011;32866;50.160;14.768;2023-04-06T14:08:10;3.07;;;2.50;;
46875;SDS011;32866;50.160;14.768;2023-04-06T14:10:38;5.72;;;3.20;;
46875;SDS011;32866;50.160;14.768;2023-04-06T14:13:07;3.90;;;2.80;;
46875;SDS011;32866;50.160;14.768;2023-04-06T14:15:33;3.22;;;2.40;;
46875;SDS011;32866;50.160;14.768;2023-04-06T14:17:59;4.88;;;2.83;;
46875;SDS011;32866;50.160;14.768;2023-04-06T14:20:25;3.77;;;2.80;;
46875;SDS011;32866;50.160;14.768;2023-04-06T14:22:51;4.50;;;2.55;;
46875;SDS011;32866;50.160;14.768;2023-04-06T14:25:17;4.17;;;3.70;;
46875;SDS011;32866;50.160;14.768;2023-04-06T14:27:43;4.07;;;2.78;;
46875;SDS011;32866;50.160;14.768;2023-04-06T14:32:35;4.20;;;3.37;;
46875;SDS011;32866;50.160;14.768;2023-04-06T14:35:01;6.97;;;3.33;;
46875;SDS011;32866;50.160;14.768;2023-04-06T14:37:26;4.57;;;3.22;;
46875;SDS011;32866;50.160;14.768;2023-04-06T14:39:52;4.40;;;3.45;;
46875;SDS011;32866;50.160;14.768;2023-04-06T14:42:17;4.43;;;3.30;;
46875;SDS011;32866;50.160;14.768;2023-04-06T14:44:42;3.92;;;3.00;;
46875;SDS011;32866;50.160;14.768;2023-04-06T14:47:10;3.17;;;2.87;;
46875;SDS011;32866;50.160;14.768;2023-04-06T14:49:35;6.30;;;3.00;;
46875;SDS011;32866;50.160;14.768;2023-04-06T14:52:01;3.85;;;2.92;;
46875;SDS011;32866;50.160;14.768;2023-04-06T14:54:26;3.83;;;2.97;;
46875;SDS011;32866;50.160;14.768;2023-04-06T14:56:52;4.15;;;3.10;;
46875;SDS011;32866;50.160;14.768;2023-04-06T14:59:17;6.75;;;2.70;;
46875;SDS011;32866;50.160;14.768;2023-04-06T15:01:42;4.10;;;3.10;;
46875;SDS011;32866;50.160;14.768;2023-04-06T15:04:08;4.40;;;3.53;;
46875;SDS011;32866;50.160;14.768;2023-04-06T15:06:33;3.35;;;2.97;;
46875;SDS011;32866;50.160;14.768;2023-04-06T15:08:59;6.72;;;3.40;;
46875;SDS011;32866;50.160;14.768;2023-04-06T15:13:51;4.97;;;3.50;;
46875;SDS011;32866;50.160;14.768;2023-04-06T15:16:16;4.03;;;3.25;;
46875;SDS011;32866;50.160;14.768;2023-04-06T15:18:41;5.55;;;3.40;;
46875;SDS011;32866;50.160;14.768;2023-04-06T15:21:07;4.85;;;3.25;;
46875;SDS011;32866;50.160;14.768;2023-04-06T15:23:32;4.25;;;2.92;;
46875;SDS011;32866;50.160;14.768;2023-04-06T15:25:59;5.80;;;3.10;;
46875;SDS011;32866;50.160;14.768;2023-04-06T15:28:25;6.85;;;4.80;;